Time;durP1;ratioP1;P1;durP2;ratioP2;P2;SDS_P1;SDS_P2;PMS_P1;PMS_P2;Temp;Humidity;BMP_temperature;BMP_pressure;BME280_temperature;BME280_humidity;BME280_pressure;Samples;Min_cycle;Max_cycle;Signal;HPM_P1;HPM_P2
2022/05/01 00:01:05;;;;;;;63.15;9.35;;;;;;;11.87;100.00;98312.00;4979697;28;20420;-55
2022/05/01 00:03:30;;;;;;;60.15;7.88;;;;;;;12.44;100.00;98310.50;4979572;28;20079;-56
2022/05/01 00:06:00;;;;;;;65.82;9.82;;;;;;;12.06;100.00;98309.53;4979059;28;20038;-54
2022/05/01 00:08:26;;;;;;;63.30;10.25;;;;;;;11.67;100.00;98313.69;4979285;28;20045;-56
2022/05/01 00:10:51;;;;;;;53.90;7.75;;;;;;;12.15;100.00;98315.22;4980140;28;20101;-55
2022/05/01 00:13:17;;;;;;;76.50;10.85;;;;;;;11.56;100.00;98311.50;4978594;28;20489;-56
2022/05/01 00:15:42;;;;;;;68.55;10.85;;;;;;;11.59;100.00;98315.75;4981885;28;20617;-55
2022/05/01 00:18:08;;;;;;;61.42;9.85;;;;;;;11.77;100.00;98325.44;4982460;28;20451;-55
2022/05/01 00:20:34;;;;;;;51.35;9.75;;;;;;;11.92;100.00;98317.94;4980985;28;20031;-54
2022/05/01 00:23:00;;;;;;;57.95;10.55;;;;;;;11.79;100.00;98316.72;4982360;28;20479;-57
2022/05/01 00:25:25;;;;;;;68.55;12.00;;;;;;;11.55;100.00;98311.56;4978792;28;20118;-54
2022/05/01 00:27:51;;;;;;;69.80;12.35;;;;;;;11.42;100.00;98315.56;4982269;28;20399;-57
2022/05/01 00:30:16;;;;;;;78.18;11.27;;;;;;;11.58;100.00;98314.06;4981778;28;20327;-56
2022/05/01 00:38:09;;;;;;;68.85;11.02;;;;;;;11.50;100.00;98303.03;4980498;28;20064;-54
2022/05/01 00:40:35;;;;;;;69.78;10.32;;;;;;;11.55;100.00;98308.94;4978622;28;20150;-54
2022/05/01 00:43:01;;;;;;;64.07;10.40;;;;;;;11.70;100.00;98308.31;4984268;28;20022;-57
2022/05/01 00:45:27;;;;;;;79.13;11.88;;;;;;;11.53;100.00;98303.78;4979249;28;20487;-54
2022/05/01 00:47:52;;;;;;;66.40;11.75;;;;;;;11.50;100.00;98316.09;4978829;28;20026;-57
2022/05/01 00:50:17;;;;;;;71.07;12.68;;;;;;;11.30;100.00;98312.53;4982070;28;20034;-56
2022/05/01 00:52:43;;;;;;;71.28;11.23;;;;;;;11.38;100.00;98320.06;4983940;28;20030;-55
2022/05/01 00:55:09;;;;;;;58.47;10.88;;;;;;;11.21;100.00;98318.09;4985143;28;20029;-54
2022/05/01 00:57:34;;;;;;;64.00;11.65;;;;;;;11.36;100.00;98314.91;4983776;28;20030;-56
2022/05/01 01:00:00;;;;;;;71.53;12.13;;;;;;;11.37;100.00;98313.97;4982940;28;20030;-56
2022/05/01 01:02:25;;;;;;;65.43;10.82;;;;;;;11.65;100.00;98317.25;4980659;28;20050;-56
2022/05/01 01:04:51;;;;;;;87.35;12.13;;;;;;;11.50;100.00;98311.72;4984482;28;20022;-56
2022/05/01 01:07:16;;;;;;;74.88;11.30;;;;;;;11.31;100.00;98305.53;4981406;28;20066;-56
2022/05/01 01:09:41;;;;;;;72.47;10.80;;;;;;;11.43;100.00;98310.25;4985234;28;20027;-57
2022/05/01 01:15:08;;;;;;;77.03;12.55;;;;;;;11.02;100.00;98319.72;4986016;28;20038;-57
2022/05/01 01:17:36;;;;;;;72.45;12.05;;;;;;;11.11;100.00;98317.59;4984123;28;20077;-56
2022/05/01 01:20:07;;;;;;;78.65;11.57;;;;;;;11.25;100.00;98317.06;4983993;28;20387;-57
2022/05/01 01:22:33;;;;;;;71.23;12.53;;;;;;;11.00;100.00;98314.53;4983410;28;20477;-56
2022/05/01 01:24:58;;;;;;;70.03;10.45;;;;;;;11.34;100.00;98321.94;4984453;28;20030;-56
2022/05/01 01:27:24;;;;;;;66.32;12.25;;;;;;;11.03;100.00;98321.41;4985727;28;20039;-57
2022/05/01 01:32:39;;;;;;;67.13;11.68;;;;;;;10.93;100.00;98316.53;4981186;28;20049;-57
2022/05/01 01:35:06;;;;;;;73.68;12.48;;;;;;;10.93;100.00;98311.31;4986396;28;20058;-58
2022/05/01 01:37:34;;;;;;;60.60;12.77;;;;;;;10.69;100.00;98313.06;4985728;28;20381;-56
2022/05/01 01:40:00;;;;;;;66.90;12.32;;;;;;;10.79;100.00;98318.81;4985548;28;20133;-57
2022/05/01 01:42:29;;;;;;;70.38;12.35;;;;;;;10.85;100.00;98308.13;4985912;28;20042;-57
2022/05/01 01:44:55;;;;;;;88.25;13.27;;;;;;;11.10;100.00;98312.44;4971204;28;20081;-57
2022/05/01 01:47:20;;;;;;;69.50;12.05;;;;;;;10.98;100.00;98304.16;4983458;28;20541;-55
2022/05/01 01:49:45;;;;;;;69.43;12.88;;;;;;;10.60;100.00;98313.41;4985715;28;20541;-55
2022/05/01 01:52:11;;;;;;;69.53;12.82;;;;;;;10.77;100.00;98307.56;4982919;28;20616;-57
2022/05/01 01:54:36;;;;;;;64.72;11.10;;;;;;;10.93;100.00;98305.25;4985286;28;20041;-56
2022/05/01 01:57:02;;;;;;;79.20;12.52;;;;;;;10.61;100.00;98309.91;4984299;28;20126;-55
2022/05/01 01:59:27;;;;;;;72.45;12.73;;;;;;;10.63;100.00;98308.09;4985385;28;20030;-55
2022/05/01 02:01:53;;;;;;;65.00;13.13;;;;;;;10.43;100.00;98308.78;4984883;28;20046;-55
2022/05/01 02:04:18;;;;;;;75.65;13.85;;;;;;;10.38;100.00;98302.88;4984404;28;20095;-55
2022/05/01 02:06:44;;;;;;;66.57;12.73;;;;;;;10.56;100.00;98312.66;4983692;28;20045;-57
2022/05/01 02:09:10;;;;;;;84.60;14.30;;;;;;;10.53;100.00;98302.34;4984485;28;20394;-56
2022/05/01 02:11:36;;;;;;;73.85;13.05;;;;;;;10.52;100.00;98308.47;4982433;28;20048;-56
2022/05/01 02:14:03;;;;;;;75.30;13.00;;;;;;;10.58;100.00;98305.63;4985321;28;20023;-57
2022/05/01 02:16:29;;;;;;;71.63;13.07;;;;;;;10.52;100.00;98300.63;4984059;28;20062;-57
2022/05/01 02:18:54;;;;;;;55.63;12.63;;;;;;;10.57;100.00;98303.09;4984427;28;20030;-56
2022/05/01 02:21:40;;;;;;;78.50;13.57;;;;;;;10.62;100.00;98295.94;4981982;28;20086;-55
2022/05/01 02:24:10;;;;;;;72.47;11.85;;;;;;;10.64;100.00;98303.69;4985518;28;20026;-57
2022/05/01 02:26:36;;;;;;;70.97;11.93;;;;;;;10.86;100.00;98294.16;4986044;28;20037;-56
2022/05/01 02:29:02;;;;;;;71.18;12.02;;;;;;;10.75;100.00;98291.13;4984743;28;20502;-55
2022/05/01 02:31:28;;;;;;;69.10;13.10;;;;;;;11.10;100.00;98292.41;4980057;28;20078;-56
2022/05/01 02:33:54;;;;;;;60.67;12.52;;;;;;;11.04;100.00;98297.00;4982122;28;20160;-55
2022/05/01 02:36:19;;;;;;;69.13;10.48;;;;;;;11.27;100.00;98294.38;4984083;28;20048;-55
2022/05/01 02:38:47;;;;;;;70.28;11.82;;;;;;;11.09;100.00;98290.69;4983375;28;20081;-55
2022/05/01 02:41:13;;;;;;;51.20;10.95;;;;;;;10.67;100.00;98294.00;4983151;28;20040;-55
2022/05/01 02:43:38;;;;;;;76.93;12.50;;;;;;;10.46;100.00;98295.66;4985066;28;20342;-55
2022/05/01 02:46:04;;;;;;;66.88;12.32;;;;;;;10.71;100.00;98302.56;4984679;28;20041;-55
2022/05/01 02:48:29;;;;;;;76.68;11.48;;;;;;;10.92;100.00;98299.19;4982485;28;20030;-56
2022/05/01 02:50:54;;;;;;;60.08;9.40;;;;;;;10.98;100.00;98292.88;4981885;28;20038;-55
2022/05/01 02:53:20;;;;;;;77.38;12.70;;;;;;;10.73;100.00;98311.19;4983790;28;20058;-55
2022/05/01 02:55:45;;;;;;;72.03;12.73;;;;;;;10.79;100.00;98303.16;4984005;28;20049;-55
2022/05/01 02:58:10;;;;;;;74.10;13.43;;;;;;;10.82;100.00;98303.03;4983907;28;20030;-55
2022/05/01 03:00:36;;;;;;;77.38;13.63;;;;;;;10.90;100.00;98297.50;4984923;28;20141;-55
2022/05/01 03:03:01;;;;;;;73.57;13.95;;;;;;;10.58;100.00;98305.63;4983519;28;20222;-55
2022/05/01 03:05:27;;;;;;;65.72;11.68;;;;;;;10.94;100.00;98306.97;4982890;28;20034;-55
2022/05/01 03:07:55;;;;;;;80.20;13.35;;;;;;;10.53;100.00;98302.34;4981607;28;20030;-55
2022/05/01 03:10:22;;;;;;;66.63;12.57;;;;;;;10.24;100.00;98305.97;4983627;28;20033;-55
2022/05/01 03:12:47;;;;;;;75.80;13.00;;;;;;;10.14;100.00;98307.16;4983656;28;20513;-56
2022/05/01 03:15:12;;;;;;;68.95;12.63;;;;;;;10.00;100.00;98311.09;4984162;28;20139;-56
2022/05/01 03:23:06;;;;;;;77.20;12.90;;;;;;;10.58;100.00;98307.38;4981807;28;20052;-57
2022/05/01 03:25:31;;;;;;;70.53;12.98;;;;;;;10.56;100.00;98309.22;4983453;28;20395;-56
2022/05/01 03:27:56;;;;;;;72.53;12.98;;;;;;;10.67;100.00;98309.66;4983883;28;20041;-58
2022/05/01 03:30:22;;;;;;;69.80;11.55;;;;;;;10.88;100.00;98297.59;4984967;28;20029;-55
2022/05/01 03:32:48;;;;;;;66.65;10.85;;;;;;;11.22;100.00;98296.31;4981884;28;20097;-56
2022/05/01 03:35:15;;;;;;;77.00;13.93;;;;;;;10.70;100.00;98290.47;4979650;28;20489;-55
2022/05/01 03:37:42;;;;;;;76.78;14.63;;;;;;;10.88;100.00;98287.16;4981945;28;20854;-55
2022/05/01 03:40:08;;;;;;;78.40;11.68;;;;;;;10.88;100.00;98297.59;4981519;28;20157;-55
2022/05/01 03:42:34;;;;;;;63.58;12.10;;;;;;;11.27;100.00;98294.38;4982313;28;20030;-56
2022/05/01 03:44:59;;;;;;;67.55;13.70;;;;;;;10.77;100.00;98295.38;4983534;28;20030;-55
2022/05/01 03:47:24;;;;;;;69.38;13.02;;;;;;;10.87;100.00;98293.28;4982413;28;20168;-56
2022/05/01 03:49:50;;;;;;;75.47;13.10;;;;;;;10.40;100.00;98307.16;4984607;28;20040;-55
2022/05/01 03:52:15;;;;;;;80.80;13.10;;;;;;;10.85;100.00;98307.31;4981791;28;20039;-56
2022/05/01 03:54:40;;;;;;;91.20;13.95;;;;;;;10.99;100.00;98305.88;4981002;28;20110;-57
2022/05/01 03:57:06;;;;;;;69.82;10.15;;;;;;;11.30;100.00;98303.81;4983060;28;20080;-55
2022/05/01 03:59:31;;;;;;;72.43;12.85;;;;;;;10.79;100.00;98305.78;4982515;28;20038;-56
2022/05/01 04:01:56;;;;;;;64.57;12.07;;;;;;;11.28;100.00;98306.50;4981150;28;20027;-55
2022/05/01 04:04:22;;;;;;;80.75;13.18;;;;;;;10.97;100.00;98307.69;4981547;28;20034;-56
2022/05/01 04:06:47;;;;;;;58.78;11.48;;;;;;;10.68;100.00;98313.13;4982098;28;20034;-55
2022/05/01 04:09:12;;;;;;;71.70;13.80;;;;;;;10.32;100.00;98323.97;4980729;28;20075;-55
2022/05/01 04:11:38;;;;;;;68.53;13.88;;;;;;;10.63;100.00;98321.13;4983046;28;20131;-56
2022/05/01 04:14:03;;;;;;;70.38;14.05;;;;;;;10.78;100.00;98332.75;4982601;28;20030;-56
2022/05/01 04:16:29;;;;;;;80.70;15.18;;;;;;;10.81;100.00;98327.44;4983135;28;20201;-55
2022/05/01 04:18:54;;;;;;;68.63;9.95;;;;;;;11.44;100.00;98317.19;4984548;28;20026;-55
2022/05/01 04:21:19;;;;;;;74.53;13.93;;;;;;;10.93;100.00;98320.91;4981980;28;20042;-56
2022/05/01 04:23:45;;;;;;;71.43;14.10;;;;;;;10.80;100.00;98325.72;4983275;28;20411;-55
2022/05/01 04:26:10;;;;;;;73.97;13.32;;;;;;;10.98;100.00;98322.44;4983236;28;20149;-59
2022/05/01 04:28:36;;;;;;;87.57;14.63;;;;;;;10.99;100.00;98320.66;4986337;28;20110;-54
2022/05/01 04:31:01;;;;;;;69.63;13.57;;;;;;;11.00;100.00;98323.22;4986678;28;20041;-58
2022/05/01 04:33:27;;;;;;;74.93;14.10;;;;;;;11.18;100.00;98323.44;4985049;28;20030;-57
2022/05/01 04:35:53;;;;;;;81.78;17.40;;;;;;;10.86;100.00;98330.69;4983964;28;20053;-57
2022/05/01 04:38:23;;;;;;;65.22;11.85;;;;;;;11.17;100.00;98329.56;4985949;28;20060;-55
2022/05/01 04:40:53;;;;;;;80.95;12.90;;;;;;;11.23;100.00;98331.97;4985594;28;20092;-56
2022/05/01 04:43:21;;;;;;;77.80;17.15;;;;;;;10.99;100.00;98331.97;4983291;28;20020;-56
2022/05/01 04:45:49;;;;;;;88.97;17.25;;;;;;;10.75;100.00;98343.28;4982928;28;20049;-56
2022/05/01 04:48:17;;;;;;;64.93;13.00;;;;;;;11.08;100.00;98345.56;4986623;28;20317;-56
2022/05/01 04:50:43;;;;;;;73.68;14.15;;;;;;;11.07;100.00;98351.72;4983867;28;20050;-55
2022/05/01 04:53:11;;;;;;;82.43;18.02;;;;;;;11.02;100.00;98353.66;4983291;28;20058;-56
2022/05/01 04:55:41;;;;;;;93.05;18.67;;;;;;;10.83;100.00;98350.88;4982935;28;20065;-55
2022/05/01 04:58:07;;;;;;;80.07;18.38;;;;;;;10.77;100.00;98351.91;4984423;28;20032;-56
2022/05/01 05:00:32;;;;;;;75.05;18.38;;;;;;;10.75;100.00;98345.91;4987227;28;20042;-57
2022/05/01 05:02:58;;;;;;;79.93;17.50;;;;;;;11.06;100.00;98353.47;4985019;28;20022;-55
2022/05/01 05:05:26;;;;;;;85.60;18.65;;;;;;;10.84;100.00;98358.63;4984021;28;20045;-56
2022/05/01 05:07:52;;;;;;;91.22;19.35;;;;;;;10.57;100.00;98350.88;4983364;28;20026;-56
2022/05/01 05:10:17;;;;;;;91.75;18.98;;;;;;;11.08;100.00;98356.00;4984446;28;20035;-57
2022/05/01 05:12:46;;;;;;;79.65;17.45;;;;;;;10.79;100.00;98365.78;4986313;28;20033;-57
2022/05/01 05:15:15;;;;;;;98.50;19.33;;;;;;;10.66;100.00;98369.72;4986703;28;20123;-55
2022/05/01 05:17:42;;;;;;;71.93;15.77;;;;;;;11.03;100.00;98363.16;4985504;28;20022;-57
2022/05/01 05:20:10;;;;;;;86.13;18.27;;;;;;;10.70;100.00;98372.19;4982989;28;20089;-56
2022/05/01 05:22:36;;;;;;;87.13;18.75;;;;;;;10.35;100.00;98373.41;4981258;28;20549;-57
2022/05/01 05:25:02;;;;;;;88.35;19.52;;;;;;;10.72;100.00;98379.94;4985287;28;20049;-56
2022/05/01 05:27:27;;;;;;;97.70;18.35;;;;;;;10.79;100.00;98379.69;4984916;28;20218;-57
2022/05/01 05:29:54;;;;;;;82.03;17.80;;;;;;;10.88;100.00;98377.63;4984907;28;20069;-55
2022/05/01 05:32:20;;;;;;;87.32;16.40;;;;;;;11.14;100.00;98382.75;4983222;28;20034;-58
2022/05/01 05:34:45;;;;;;;100.53;17.60;;;;;;;11.63;100.00;98368.72;4984940;28;20472;-55
2022/05/01 05:37:11;;;;;;;79.60;17.25;;;;;;;11.15;100.00;98379.22;4984569;28;20042;-55
2022/05/01 05:39:36;;;;;;;79.07;13.43;;;;;;;11.66;100.00;98368.63;4986458;28;20025;-56
2022/05/01 05:42:02;;;;;;;91.15;17.52;;;;;;;11.50;100.00;98371.81;4984502;28;20100;-56
2022/05/01 05:44:27;;;;;;;85.45;17.33;;;;;;;11.41;100.00;98363.47;4983694;28;20052;-55
2022/05/01 05:46:53;;;;;;;77.72;16.38;;;;;;;11.30;100.00;98372.59;4983218;28;20524;-57
2022/05/01 05:49:18;;;;;;;80.10;17.90;;;;;;;11.02;100.00;98377.13;4984978;28;20044;-55
2022/05/01 05:51:44;;;;;;;71.63;15.18;;;;;;;11.22;100.00;98379.00;4984259;28;20174;-54
2022/05/01 05:54:09;;;;;;;72.85;17.27;;;;;;;11.22;100.00;98381.63;4983267;28;20516;-55
2022/05/01 05:56:34;;;;;;;97.22;18.73;;;;;;;11.03;100.00;98379.69;4982036;28;20043;-55
2022/05/01 05:58:59;;;;;;;120.75;19.85;;;;;;;11.17;100.00;98373.94;4986151;28;20091;-54
2022/05/01 06:01:25;;;;;;;77.47;17.00;;;;;;;10.90;100.00;98378.41;4984001;28;20100;-55
2022/05/01 06:03:50;;;;;;;96.75;16.63;;;;;;;11.76;100.00;98376.03;4980815;28;20030;-56
2022/05/01 06:06:17;;;;;;;65.25;16.15;;;;;;;11.30;100.00;98377.81;4983318;28;21031;-56
2022/05/01 06:08:43;;;;;;;83.43;17.35;;;;;;;11.17;100.00;98371.34;4984277;28;20893;-55
2022/05/01 06:11:08;;;;;;;67.00;15.73;;;;;;;11.69;100.00;98366.72;4985624;28;20750;-56
2022/05/01 06:13:34;;;;;;;72.85;16.02;;;;;;;12.11;100.00;98365.94;4983027;28;20655;-55
2022/05/01 06:15:59;;;;;;;82.43;16.77;;;;;;;11.93;100.00;98364.09;4982563;28;20458;-56
2022/05/01 06:18:25;;;;;;;68.95;16.05;;;;;;;12.27;100.00;98375.75;4984820;28;20030;-55
2022/05/01 06:20:50;;;;;;;88.28;17.25;;;;;;;12.05;100.00;98371.41;4983926;28;20049;-56
2022/05/01 06:23:16;;;;;;;76.35;16.67;;;;;;;11.89;100.00;98367.69;4984127;28;20058;-56
2022/05/01 06:25:46;;;;;;;73.25;16.40;;;;;;;12.12;100.00;98366.78;4983971;28;20424;-58
2022/05/01 06:28:13;;;;;;;68.85;15.25;;;;;;;12.40;100.00;98371.69;4985708;28;20037;-56
2022/05/01 06:30:44;;;;;;;70.75;16.27;;;;;;;12.65;100.00;98370.66;4979613;28;20038;-56
2022/05/01 06:33:11;;;;;;;72.00;16.10;;;;;;;13.82;100.00;98354.84;4981466;28;20029;-57
2022/05/01 06:35:37;;;;;;;77.93;15.82;;;;;;;14.22;100.00;98363.38;4983889;28;20061;-56
2022/05/01 06:38:02;;;;;;;80.70;14.98;;;;;;;14.72;100.00;98359.13;4984140;28;20053;-56
2022/05/01 06:40:28;;;;;;;76.53;15.45;;;;;;;14.86;100.00;98355.78;4984061;28;20037;-56
2022/05/01 06:42:54;;;;;;;75.28;14.75;;;;;;;15.35;100.00;98353.16;4984991;28;20058;-55
2022/05/01 06:45:19;;;;;;;66.10;14.80;;;;;;;15.27;100.00;98352.69;4982593;28;20631;-56
2022/05/01 06:47:45;;;;;;;59.50;14.50;;;;;;;16.20;100.00;98354.50;4983144;28;20018;-56
2022/05/01 06:50:10;;;;;;;80.05;15.25;;;;;;;19.40;100.00;98344.41;4983402;28;20471;-57
2022/05/01 06:52:36;;;;;;;60.83;13.57;;;;;;;19.97;100.00;98347.41;4981555;28;20473;-55
2022/05/01 06:55:01;;;;;;;66.75;14.60;;;;;;;17.88;100.00;98350.38;4982405;28;20455;-56
2022/05/01 06:57:27;;;;;;;71.40;14.20;;;;;;;18.66;100.00;98349.56;4981497;28;20077;-58
2022/05/01 06:59:53;;;;;;;61.30;14.35;;;;;;;18.26;100.00;98344.31;4983210;28;20054;-57
2022/05/01 07:02:18;;;;;;;71.05;14.60;;;;;;;18.68;100.00;98342.38;4980767;28;20037;-57
2022/05/01 07:04:44;;;;;;;94.35;17.10;;;;;;;18.87;100.00;98341.13;4983173;28;20022;-56
2022/05/01 07:07:09;;;;;;;75.60;15.70;;;;;;;19.42;100.00;98337.22;4981530;28;20133;-57
2022/05/01 07:09:35;;;;;;;64.20;14.38;;;;;;;20.48;91.25;98347.13;4983948;28;20033;-57
2022/05/01 07:12:00;;;;;;;69.10;14.77;;;;;;;19.88;92.61;98348.94;4983139;28;20046;-57
2022/05/01 07:14:26;;;;;;;75.05;15.18;;;;;;;18.84;100.00;98341.34;4981264;28;20503;-57
2022/05/01 07:16:51;;;;;;;46.42;13.70;;;;;;;18.90;98.78;98351.50;4980034;28;20043;-58
2022/05/01 07:19:16;;;;;;;70.68;15.63;;;;;;;18.79;98.68;98348.72;4981312;28;20041;-56
2022/05/01 07:21:42;;;;;;;63.90;14.63;;;;;;;20.31;89.94;98355.47;4980178;28;20042;-57
2022/05/01 07:24:07;;;;;;;57.00;13.90;;;;;;;22.37;71.43;98344.53;4983136;28;20033;-58
2022/05/01 07:26:33;;;;;;;65.80;13.88;;;;;;;22.47;69.36;98344.56;4981116;28;20132;-57
2022/05/01 07:29:03;;;;;;;62.53;14.32;;;;;;;23.12;63.65;98341.72;4982763;28;20023;-57
2022/05/01 07:31:29;;;;;;;75.45;14.90;;;;;;;24.27;58.76;98344.75;4982894;28;20039;-57
2022/05/01 07:33:54;;;;;;;61.10;13.65;;;;;;;23.90;58.69;98345.47;4981457;28;20038;-57
2022/05/01 07:36:20;;;;;;;48.40;12.90;;;;;;;24.09;59.63;98343.78;4982514;28;20038;-56
2022/05/01 07:38:51;;;;;;;61.20;13.43;;;;;;;25.78;52.99;98343.84;4981587;28;20602;-56
2022/05/01 07:41:17;;;;;;;56.25;12.40;;;;;;;27.06;49.71;98339.88;4980739;28;20046;-57
2022/05/01 07:43:46;;;;;;;65.05;13.75;;;;;;;23.81;52.94;98340.97;4979937;28;20556;-56
2022/05/01 07:46:12;;;;;;;53.88;12.80;;;;;;;23.51;56.99;98333.84;4969193;28;20100;-58
2022/05/01 07:48:38;;;;;;;54.75;13.98;;;;;;;21.64;60.55;98328.34;4981324;28;20097;-59
2022/05/01 07:51:03;;;;;;;61.17;13.90;;;;;;;23.56;56.58;98336.97;4979438;28;20062;-58
2022/05/01 07:53:29;;;;;;;54.95;13.02;;;;;;;23.98;54.02;98332.28;4978889;28;20038;-59
2022/05/01 07:55:56;;;;;;;58.65;13.43;;;;;;;20.80;62.53;98334.03;4979958;28;20086;-58
2022/05/01 07:58:22;;;;;;;53.90;12.48;;;;;;;22.89;58.84;98334.75;4984025;28;20551;-59
2022/05/01 08:00:47;;;;;;;58.22;13.00;;;;;;;23.32;56.71;98335.50;4981856;28;20070;-59
2022/05/01 08:05:58;;;;;;;81.32;13.60;;;;;;;25.41;52.69;98333.25;4981287;28;20046;-58
2022/05/01 08:08:23;;;;;;;62.67;12.75;;;;;;;24.15;52.40;98332.56;4980991;28;20081;-57
2022/05/01 08:10:48;;;;;;;58.45;12.63;;;;;;;22.50;55.86;98334.53;4981456;28;20027;-57
2022/05/01 08:13:14;;;;;;;47.35;11.23;;;;;;;24.73;52.75;98329.84;4943695;28;1108566;-58
2022/05/01 08:15:39;;;;;;;60.10;12.02;;;;;;;23.45;57.77;98319.28;4978560;28;20547;-58
2022/05/01 08:23:34;;;;;;;54.78;12.23;;;;;;;23.06;54.88;98324.47;4981341;28;20038;-58
2022/05/01 08:26:03;;;;;;;64.35;12.35;;;;;;;24.60;50.93;98329.31;4982569;28;20106;-58
2022/05/01 08:28:35;;;;;;;50.22;11.02;;;;;;;24.88;52.10;98319.53;4981775;28;20694;-58
2022/05/01 08:31:01;;;;;;;54.75;11.00;;;;;;;23.96;53.26;98323.59;4980993;28;20456;-58
2022/05/01 08:33:28;;;;;;;55.50;11.13;;;;;;;23.33;54.09;98320.38;4982656;28;20496;-57
2022/05/01 08:35:54;;;;;;;55.33;11.60;;;;;;;20.53;62.81;98317.59;4983529;28;20034;-58
2022/05/01 08:38:20;;;;;;;50.78;11.23;;;;;;;21.85;61.32;98316.94;4981986;28;20432;-58
2022/05/01 08:40:47;;;;;;;58.67;10.07;;;;;;;22.57;56.88;98318.03;4981308;28;20042;-60
2022/05/01 08:43:18;;;;;;;64.60;10.73;;;;;;;23.32;54.48;98313.38;4982165;28;20034;-58
2022/05/01 08:45:52;;;;;;;40.40;8.77;;;;;;;22.26;55.53;98310.03;4980455;28;20046;-60
2022/05/01 08:48:24;;;;;;;64.18;9.75;;;;;;;24.28;51.43;98311.81;4981744;28;20045;-60
2022/05/01 08:50:51;;;;;;;69.28;10.77;;;;;;;24.68;50.19;98313.41;4978725;28;20042;-59
2022/05/01 08:53:18;;;;;;;51.92;9.38;;;;;;;22.69;52.94;98314.34;4970467;28;20033;-59
2022/05/01 08:55:45;;;;;;;55.75;10.73;;;;;;;22.16;56.63;98317.88;4980935;28;20157;-58
2022/05/01 08:58:11;;;;;;;60.40;10.75;;;;;;;25.05;50.69;98317.91;4981280;28;20030;-59
2022/05/01 09:00:37;;;;;;;57.22;11.10;;;;;;;22.30;55.74;98317.59;4981472;28;20092;-59
2022/05/01 09:03:04;;;;;;;55.83;10.90;;;;;;;21.90;58.29;98325.38;4984075;28;20033;-58
2022/05/01 09:05:31;;;;;;;63.25;11.57;;;;;;;20.51;63.01;98323.03;4981667;28;20328;-59
2022/05/01 09:07:56;;;;;;;51.33;11.07;;;;;;;19.77;69.08;98325.91;4981985;28;20779;-59
2022/05/01 09:10:26;;;;;;;51.28;12.00;;;;;;;19.67;69.09;98324.00;4983567;28;20084;-59
2022/05/01 09:12:55;;;;;;;45.00;10.32;;;;;;;19.57;71.33;98324.69;4984966;28;20031;-58
2022/05/01 09:15:46;;;;;;;79.30;12.57;;;;;;;19.78;71.14;98330.25;4975882;28;20153;-59
2022/05/01 09:18:14;;;;;;;77.95;11.82;;;;;;;20.53;66.58;98322.91;4977116;28;20104;-59
2022/05/01 09:21:07;;;;;;;76.97;12.20;;;;;;;20.02;67.88;98319.63;4980018;28;20532;-59
2022/05/01 09:23:40;;;;;;;93.20;12.55;;;;;;;20.18;68.58;98311.41;4975633;28;20455;-60
2022/05/01 09:26:08;;;;;;;90.05;12.10;;;;;;;19.49;69.01;98305.03;4980254;28;20066;-58
2022/05/01 09:28:36;;;;;;;90.43;12.45;;;;;;;21.31;61.99;98314.16;4979167;28;20022;-59
2022/05/01 09:31:01;;;;;;;102.45;13.18;;;;;;;20.45;63.66;98315.53;4977336;28;20034;-58
2022/05/01 09:33:27;;;;;;;74.07;11.93;;;;;;;20.03;64.33;98318.69;4982104;28;20038;-58
2022/05/01 09:35:52;;;;;;;73.82;10.98;;;;;;;20.35;64.22;98325.16;4981764;28;20030;-65
2022/05/01 09:38:23;;;;;;;63.72;10.48;;;;;;;22.69;56.65;98317.84;4982152;28;20408;-58
2022/05/01 09:40:50;;;;;;;79.07;11.63;;;;;;;21.91;54.73;98311.13;4978437;28;20146;-58
2022/05/01 09:43:35;;;;;;;83.93;11.05;;;;;;;24.89;50.27;98309.72;4978893;28;20057;-59
2022/05/01 09:46:33;;;;;;;100.32;12.13;;;;;;;24.07;49.20;98305.78;4978482;28;20351;-59
2022/05/01 09:49:01;;;;;;;60.00;9.68;;;;;;;23.37;50.63;98308.47;4981066;28;20038;-58
2022/05/01 09:51:28;;;;;;;68.13;10.38;;;;;;;22.11;54.21;98302.34;4980921;28;20038;-58
2022/05/01 09:53:54;;;;;;;79.32;9.80;;;;;;;23.67;53.40;98303.09;4981559;28;20030;-57
2022/05/01 09:56:20;;;;;;;86.15;11.68;;;;;;;24.20;51.15;98298.34;4982080;28;20096;-59
2022/05/01 09:58:45;;;;;;;93.82;12.27;;;;;;;24.27;46.79;98302.13;4978057;28;20040;-57
2022/05/01 10:01:14;;;;;;;97.28;11.70;;;;;;;27.33;41.28;98292.47;4976913;28;20109;-59
2022/05/01 10:03:47;;;;;;;95.43;11.60;;;;;;;25.29;43.42;98292.53;4980146;28;20021;-58
2022/05/01 10:06:14;;;;;;;58.10;9.43;;;;;;;24.71;47.04;98291.78;4980377;28;20104;-59
2022/05/01 10:08:42;;;;;;;59.88;9.20;;;;;;;26.93;42.07;98285.94;4983328;28;20022;-59
2022/05/01 10:11:07;;;;;;;61.10;9.68;;;;;;;24.14;43.63;98289.09;4979502;28;20484;-59
2022/05/01 10:13:34;;;;;;;63.92;9.57;;;;;;;25.70;41.98;98279.66;4979662;28;20022;-58
2022/05/01 10:16:01;;;;;;;95.57;11.27;;;;;;;25.06;43.89;98281.41;4977107;28;20041;-59
2022/05/01 10:18:26;;;;;;;78.60;11.27;;;;;;;23.63;44.41;98280.34;4980328;28;20056;-58
2022/05/01 10:20:52;;;;;;;94.03;11.68;;;;;;;23.96;46.35;98275.63;4976640;28;20540;-58
2022/05/01 10:23:18;;;;;;;82.22;9.93;;;;;;;25.04;45.67;98278.88;4978020;28;20725;-59
2022/05/01 10:25:50;;;;;;;73.03;9.63;;;;;;;24.86;44.03;98267.31;4981028;28;20038;-58
2022/05/01 10:28:38;;;;;;;95.03;11.73;;;;;;;24.28;45.23;98277.16;4979829;28;20468;-58
2022/05/01 10:34:14;;;;;;;59.97;9.52;;;;;;;24.27;46.10;98272.78;4980376;28;20069;-58
2022/05/01 10:37:18;;;;;;;68.47;9.48;;;;;;;23.36;50.19;98269.53;4976175;28;20054;-59
2022/05/01 10:39:45;;;;;;;80.10;10.20;;;;;;;23.74;52.46;98260.75;4977930;28;20444;-58
2022/05/01 10:42:10;;;;;;;81.57;11.85;;;;;;;22.08;52.84;98260.09;4980191;28;20628;-57
2022/05/01 10:44:40;;;;;;;75.20;11.88;;;;;;;20.65;55.36;98268.16;4978821;28;20038;-59
2022/05/01 10:47:12;;;;;;;95.28;13.02;;;;;;;20.97;57.74;98269.13;4974254;28;20038;-56
2022/05/01 10:49:45;;;;;;;58.47;9.82;;;;;;;20.20;63.03;98272.41;4978400;28;20025;-58
2022/05/01 10:52:22;;;;;;;68.93;11.15;;;;;;;19.33;64.10;98269.09;4980766;28;20042;-57
2022/05/01 10:54:54;;;;;;;115.18;12.73;;;;;;;20.36;63.84;98268.56;4984222;28;20030;-59
2022/05/01 10:57:20;;;;;;;69.25;10.13;;;;;;;20.45;64.92;98269.66;4982069;28;20441;-56
2022/05/01 10:59:47;;;;;;;74.05;10.73;;;;;;;20.83;62.88;98265.88;4973874;28;20673;-58
2022/05/01 11:02:24;;;;;;;56.92;9.45;;;;;;;20.84;65.75;98257.78;4978935;28;20398;-59
2022/05/01 11:04:52;;;;;;;105.70;12.43;;;;;;;20.88;65.96;98253.94;4979028;28;20048;-57
2022/05/01 11:07:18;;;;;;;79.40;11.30;;;;;;;20.55;64.88;98252.94;4978615;28;20038;-58
2022/05/01 11:09:46;;;;;;;88.30;12.20;;;;;;;20.27;65.13;98251.56;4981854;28;20065;-59
2022/05/01 11:12:13;;;;;;;79.57;10.82;;;;;;;21.22;62.91;98256.53;4980009;28;20042;-57
2022/05/01 11:14:39;;;;;;;89.10;11.45;;;;;;;21.33;61.25;98255.66;4980318;28;20027;-59
2022/05/01 11:17:04;;;;;;;103.13;12.83;;;;;;;22.12;57.21;98247.41;4978968;28;20053;-58
2022/05/01 11:19:42;;;;;;;80.28;11.25;;;;;;;22.58;57.95;98255.94;4981876;28;20307;-58
2022/05/01 11:22:08;;;;;;;68.40;10.40;;;;;;;22.87;55.65;98245.44;4976482;28;20066;-59
2022/05/01 11:24:41;;;;;;;50.08;9.15;;;;;;;23.24;55.95;98243.03;4976243;28;20053;-58
2022/05/01 11:27:17;;;;;;;92.63;11.15;;;;;;;23.94;52.99;98242.97;4979408;28;20621;-58
2022/05/01 11:30:17;;;;;;;86.30;10.73;;;;;;;22.28;57.82;98236.34;4978901;28;20151;-60
2022/05/01 11:32:47;;;;;;;47.85;8.88;;;;;;;21.54;60.03;98234.50;4979622;28;20050;-58
2022/05/01 11:35:14;;;;;;;65.30;9.32;;;;;;;22.35;58.85;98229.53;4980414;28;20026;-58
2022/05/01 11:38:05;;;;;;;59.55;8.40;;;;;;;23.21;56.19;98222.00;4978551;28;20038;-58
2022/05/01 11:40:32;;;;;;;73.20;9.02;;;;;;;23.36;54.94;98219.81;4978676;28;20581;-57